createdAt,value
2022-11-21T00:00:55.703Z,4.94
2022-11-21T00:01:55.718Z,4.99
2022-11-21T00:02:55.668Z,5.00
2022-11-21T00:03:55.669Z,5.00
2022-11-21T00:04:55.638Z,4.97
2022-11-21T00:05:55.659Z,4.94
2022-11-21T00:06:55.630Z,4.94
2022-11-21T00:07:55.628Z,4.94
2022-11-21T00:08:56.048Z,4.97
2022-11-21T00:09:55.609Z,5.00
2022-11-21T00:10:55.581Z,5.00
2022-11-21T00:11:55.579Z,5.02
2022-11-21T00:12:55.570Z,5.00
2022-11-21T00:13:55.561Z,4.99
2022-11-21T00:14:55.541Z,4.97
2022-11-21T00:15:55.801Z,4.97
2022-11-21T00:16:57.536Z,4.96
2022-11-21T00:17:55.512Z,4.99
2022-11-21T00:18:55.523Z,4.99
2022-11-21T00:19:55.502Z,5.00
2022-11-21T00:20:55.469Z,5.00
2022-11-21T00:21:55.480Z,5.03
2022-11-21T00:22:55.451Z,5.06
2022-11-21T00:23:55.474Z,5.09
2022-11-21T00:24:55.434Z,5.15
2022-11-21T00:25:55.454Z,5.20
2022-11-21T00:26:55.414Z,5.20
2022-11-21T00:27:56.224Z,5.24
2022-11-21T00:28:55.384Z,5.24
2022-11-21T00:29:55.384Z,5.21
2022-11-21T00:30:55.364Z,5.20
2022-11-21T00:31:55.422Z,5.15
2022-11-21T00:32:56.162Z,5.18
2022-11-21T00:33:55.376Z,5.17
2022-11-21T00:34:55.323Z,5.24
2022-11-21T00:35:55.325Z,5.28
2022-11-21T00:36:55.323Z,5.27
2022-11-21T00:37:55.301Z,5.31
2022-11-21T00:38:55.285Z,5.39
2022-11-21T00:39:55.402Z,5.42
2022-11-21T00:40:55.393Z,5.42
2022-11-21T00:41:55.256Z,5.38
2022-11-21T00:42:55.256Z,5.38
2022-11-21T00:43:55.284Z,5.36
2022-11-21T00:44:55.367Z,5.36
2022-11-21T00:45:55.229Z,5.36
2022-11-21T00:46:55.218Z,5.38
2022-11-21T00:47:55.196Z,5.39
2022-11-21T00:48:55.215Z,5.39
2022-11-21T00:49:55.249Z,5.36
2022-11-21T00:50:55.177Z,5.39
2022-11-21T00:51:55.149Z,5.46
2022-11-21T00:52:55.159Z,5.56
2022-11-21T00:53:55.138Z,5.61
2022-11-21T00:54:55.140Z,5.58
2022-11-21T00:55:55.118Z,5.61
2022-11-21T00:56:55.091Z,5.64
2022-11-21T00:57:55.105Z,5.65
2022-11-21T00:58:55.595Z,5.64
2022-11-21T00:59:55.068Z,5.63
2022-11-21T01:00:55.131Z,5.63
2022-11-21T01:01:55.051Z,5.64
2022-11-21T01:02:55.041Z,5.67
2022-11-21T01:03:55.653Z,5.63
2022-11-21T01:04:55.028Z,5.61
2022-11-21T01:05:55.000Z,5.57
2022-11-21T01:06:55.002Z,5.54
2022-11-21T01:07:54.990Z,5.57
2022-11-21T01:08:54.984Z,5.58
2022-11-21T01:09:54.972Z,5.61
2022-11-21T01:10:54.983Z,5.65
2022-11-21T01:11:54.941Z,5.63
2022-11-21T01:12:55.372Z,5.65
2022-11-21T01:13:54.928Z,5.64
2022-11-21T01:14:54.914Z,5.72
2022-11-21T01:15:54.914Z,5.72
2022-11-21T01:16:55.163Z,5.76
2022-11-21T01:17:54.871Z,5.72
2022-11-21T01:18:54.884Z,5.74
2022-11-21T01:19:54.886Z,5.72
2022-11-21T01:20:54.864Z,5.72
2022-11-21T01:21:55.060Z,5.72
2022-11-21T01:22:54.826Z,5.71
2022-11-21T01:23:54.806Z,5.71
2022-11-21T01:24:54.857Z,5.79
2022-11-21T01:25:54.806Z,5.89
2022-11-21T01:26:54.786Z,5.86
2022-11-21T01:27:54.777Z,5.89
2022-11-21T01:28:54.768Z,5.83
2022-11-21T01:29:54.756Z,5.76
2022-11-21T01:30:54.748Z,5.78
2022-11-21T01:31:54.736Z,5.72
2022-11-21T01:32:54.726Z,5.67
2022-11-21T01:33:54.696Z,5.60
2022-11-21T01:34:54.697Z,5.57
2022-11-21T01:35:54.685Z,5.58
2022-11-21T01:36:54.678Z,5.57
2022-11-21T01:37:54.658Z,5.54
2022-11-21T01:38:54.669Z,5.45
2022-11-21T01:39:54.648Z,5.43
2022-11-21T01:40:54.667Z,5.38
2022-11-21T01:41:54.620Z,5.27
2022-11-21T01:42:54.608Z,5.21
2022-11-21T01:43:54.598Z,5.15
2022-11-21T01:44:54.612Z,5.10
2022-11-21T01:45:54.593Z,5.06
2022-11-21T01:46:54.570Z,5.00
2022-11-21T01:47:54.549Z,5.00
2022-11-21T01:48:54.551Z,4.99
2022-11-21T01:49:54.550Z,4.97
2022-11-21T01:50:54.548Z,4.94
2022-11-21T01:51:54.511Z,4.96
2022-11-21T01:52:54.533Z,4.92
2022-11-21T01:53:54.513Z,5.00
2022-11-21T01:54:54.490Z,5.03
2022-11-21T01:55:54.470Z,5.10
2022-11-21T01:56:54.471Z,5.06
2022-11-21T01:57:54.441Z,5.13
2022-11-21T01:58:54.442Z,5.22
2022-11-21T01:59:55.252Z,5.28
2022-11-21T02:00:54.536Z,5.36
2022-11-21T02:01:54.408Z,5.33
2022-11-21T02:02:54.433Z,5.35
2022-11-21T02:03:54.405Z,5.40
2022-11-21T02:04:54.397Z,5.53
2022-11-21T02:05:54.375Z,5.60
2022-11-21T02:06:54.365Z,5.61
2022-11-21T02:07:54.345Z,5.60
2022-11-21T02:08:54.353Z,5.61
2022-11-21T02:09:54.353Z,5.63
2022-11-21T02:10:54.315Z,5.57
2022-11-21T02:11:54.314Z,5.56
2022-11-21T02:12:54.322Z,5.54
2022-11-21T02:13:54.283Z,5.56
2022-11-21T02:14:54.285Z,5.57
2022-11-21T02:15:54.265Z,5.60
2022-11-21T02:16:54.324Z,5.58
2022-11-21T02:17:54.246Z,5.67
2022-11-21T02:18:54.235Z,5.68
2022-11-21T02:19:54.216Z,5.63
2022-11-21T02:20:54.216Z,5.63
2022-11-21T02:21:54.194Z,5.61
2022-11-21T02:22:54.187Z,5.74
2022-11-21T02:23:57.727Z,5.82
2022-11-21T02:24:55.337Z,5.85
2022-11-21T02:25:54.172Z,5.85
2022-11-21T02:26:54.148Z,5.85
2022-11-21T02:27:54.129Z,5.83
2022-11-21T02:28:54.128Z,5.97
2022-11-21T02:29:54.658Z,6.11
2022-11-21T02:30:54.107Z,6.15
2022-11-21T02:31:54.103Z,6.18
2022-11-21T02:32:54.098Z,6.22
2022-11-21T02:33:54.069Z,6.22
2022-11-21T02:34:54.229Z,6.25
2022-11-21T02:35:54.059Z,6.36
2022-11-21T02:36:54.047Z,6.40
2022-11-21T02:37:54.029Z,6.41
2022-11-21T02:38:54.020Z,6.43
2022-11-21T02:39:54.000Z,6.36
2022-11-21T02:40:54.003Z,6.28
2022-11-21T02:41:53.979Z,6.28
2022-11-21T02:42:53.980Z,6.22
2022-11-21T02:43:53.961Z,6.19
2022-11-21T02:44:53.960Z,6.19
2022-11-21T02:45:53.941Z,6.18
2022-11-21T02:46:53.940Z,6.15
2022-11-21T02:47:54.832Z,6.18
2022-11-21T02:48:53.925Z,6.25
2022-11-21T02:49:53.893Z,6.25
2022-11-21T02:50:53.892Z,6.27
2022-11-21T02:51:53.872Z,6.28
2022-11-21T02:52:53.872Z,6.30
2022-11-21T02:53:53.862Z,6.31
2022-11-21T02:54:53.864Z,6.33
2022-11-21T02:55:53.841Z,6.34
2022-11-21T02:56:54.645Z,6.31
2022-11-21T02:57:53.814Z,6.34
2022-11-21T02:58:53.803Z,6.30
2022-11-21T02:59:53.784Z,6.25
2022-11-21T03:00:53.856Z,6.27
2022-11-21T03:01:53.766Z,6.31
2022-11-21T03:02:53.754Z,6.41
2022-11-21T03:03:53.745Z,6.48
2022-11-21T03:04:53.736Z,6.52
2022-11-21T03:05:53.724Z,6.51
2022-11-21T03:06:53.727Z,6.48
2022-11-21T03:07:53.707Z,6.49
2022-11-21T03:08:53.701Z,6.46
2022-11-21T03:09:53.682Z,6.43
2022-11-21T03:10:53.676Z,6.40
2022-11-21T03:11:53.657Z,6.41
2022-11-21T03:12:53.666Z,6.43
2022-11-21T03:13:53.649Z,6.41
2022-11-21T03:14:53.712Z,6.40
2022-11-21T03:15:53.617Z,6.38
2022-11-21T03:16:53.620Z,6.36
2022-11-21T03:17:53.598Z,6.34
2022-11-21T03:18:53.589Z,6.34
2022-11-21T03:19:53.569Z,6.31
2022-11-21T03:20:53.580Z,6.27
2022-11-21T03:21:53.558Z,6.31
2022-11-21T03:22:53.697Z,6.31
2022-11-21T03:23:53.529Z,6.31
2022-11-21T03:24:53.534Z,6.31
2022-11-21T03:25:53.510Z,6.30
2022-11-21T03:26:53.768Z,6.27
2022-11-21T03:27:54.482Z,6.30
2022-11-21T03:28:53.491Z,6.40
2022-11-21T03:29:53.473Z,6.44
2022-11-21T03:30:53.470Z,6.48
2022-11-21T03:31:53.447Z,6.49
2022-11-21T03:32:53.453Z,6.51
2022-11-21T03:33:53.422Z,6.48
2022-11-21T03:34:53.711Z,6.49
2022-11-21T03:35:53.411Z,6.44
2022-11-21T03:36:53.404Z,6.48
2022-11-21T03:37:53.383Z,6.49
2022-11-21T03:38:53.432Z,6.48
2022-11-21T03:39:53.360Z,6.48
2022-11-21T03:40:53.362Z,6.46
2022-11-21T03:41:53.334Z,6.49
2022-11-21T03:42:53.352Z,6.44
2022-11-21T03:43:53.313Z,6.44
2022-11-21T03:44:53.326Z,6.43
2022-11-21T03:45:53.292Z,6.40
2022-11-21T03:46:53.326Z,6.40
2022-11-21T03:47:53.272Z,6.44
2022-11-21T03:48:53.266Z,6.51
2022-11-21T03:49:53.261Z,6.46
2022-11-21T03:50:53.246Z,6.44
2022-11-21T03:51:53.225Z,6.43
2022-11-21T03:52:53.242Z,6.38
2022-11-21T03:53:53.872Z,6.34
2022-11-21T03:54:53.215Z,6.31
2022-11-21T03:55:53.188Z,6.31
2022-11-21T03:56:53.251Z,6.30
2022-11-21T03:57:53.167Z,6.27
2022-11-21T03:58:53.203Z,6.21
2022-11-21T03:59:53.187Z,6.19
2022-11-21T04:00:53.625Z,6.27
2022-11-21T04:01:53.162Z,6.30
2022-11-21T04:02:53.116Z,6.28
2022-11-21T04:03:53.098Z,6.27
2022-11-21T04:04:53.268Z,6.30
2022-11-21T04:05:53.086Z,6.34
2022-11-21T04:06:53.082Z,6.40
2022-11-21T04:07:53.060Z,6.43
2022-11-21T04:08:53.100Z,6.44
2022-11-21T04:09:53.038Z,6.40
2022-11-21T04:10:53.032Z,6.41
2022-11-21T04:11:53.158Z,6.44
2022-11-21T04:12:53.018Z,6.44
2022-11-21T04:13:52.996Z,6.48
2022-11-21T04:14:52.990Z,6.54
2022-11-21T04:15:52.988Z,6.55
2022-11-21T04:16:52.970Z,6.59
2022-11-21T04:17:52.950Z,6.59
2022-11-21T04:18:52.951Z,6.64
2022-11-21T04:19:52.982Z,6.64
2022-11-21T04:20:52.929Z,6.66
2022-11-21T04:21:52.926Z,6.69
2022-11-21T04:22:52.901Z,6.70
2022-11-21T04:23:52.891Z,6.69
2022-11-21T04:24:52.889Z,6.70
2022-11-21T04:25:52.862Z,6.69
2022-11-21T04:26:52.862Z,6.69
2022-11-21T04:27:52.853Z,6.73
2022-11-21T04:28:52.852Z,6.73
2022-11-21T04:29:52.823Z,6.73
2022-11-21T04:30:54.970Z,6.76
2022-11-21T04:31:52.795Z,6.79
2022-11-21T04:32:52.794Z,6.85
2022-11-21T04:33:52.824Z,6.79
2022-11-21T04:34:52.803Z,6.80
2022-11-21T04:35:52.763Z,6.77
2022-11-21T04:36:52.804Z,6.74
2022-11-21T04:37:52.735Z,6.73
2022-11-21T04:38:52.734Z,6.73
2022-11-21T04:39:52.715Z,6.84
2022-11-21T04:40:52.724Z,6.88
2022-11-21T04:41:52.708Z,6.89
2022-11-21T04:42:52.695Z,6.92
2022-11-21T04:43:52.701Z,6.89
2022-11-21T04:44:52.679Z,6.91
2022-11-21T04:45:52.650Z,6.99
2022-11-21T04:46:52.658Z,6.98
2022-11-21T04:47:52.634Z,6.97
2022-11-21T04:48:52.648Z,6.94
2022-11-21T04:49:52.707Z,6.95
2022-11-21T04:50:52.618Z,6.98
2022-11-21T04:51:52.587Z,6.95
2022-11-21T04:52:52.607Z,6.91
2022-11-21T04:53:52.577Z,6.92
2022-11-21T04:54:52.571Z,6.92
2022-11-21T04:55:52.545Z,6.92
2022-11-21T04:56:52.539Z,6.92
2022-11-21T04:57:52.522Z,6.97
2022-11-21T04:58:52.554Z,7.03
2022-11-21T04:59:52.498Z,7.06
2022-11-21T05:00:52.796Z,7.02
2022-11-21T05:01:52.470Z,7.02
2022-11-21T05:02:52.478Z,7.06
2022-11-21T05:03:52.461Z,7.05
2022-11-21T05:04:52.450Z,7.03
2022-11-21T05:05:52.433Z,6.98
2022-11-21T05:06:52.440Z,6.95
2022-11-21T05:07:52.422Z,6.91
2022-11-21T05:08:54.195Z,6.91
2022-11-21T05:09:52.393Z,6.91
2022-11-21T05:10:52.392Z,6.87
2022-11-21T05:11:52.389Z,6.89
2022-11-21T05:12:52.562Z,6.89
2022-11-21T05:13:52.360Z,6.89
2022-11-21T05:14:52.345Z,6.88
2022-11-21T05:15:52.334Z,6.85
2022-11-21T05:16:52.314Z,6.87
2022-11-21T05:17:52.316Z,6.81
2022-11-21T05:18:52.295Z,6.79
2022-11-21T05:19:52.292Z,6.79
2022-11-21T05:20:52.282Z,6.80
2022-11-21T05:21:52.277Z,6.79
2022-11-21T05:22:52.254Z,6.80
2022-11-21T05:23:52.246Z,6.85
2022-11-21T05:24:52.233Z,6.84
2022-11-21T05:25:52.237Z,6.79
2022-11-21T05:26:52.221Z,6.77
2022-11-21T05:27:52.216Z,6.77
2022-11-21T05:28:52.196Z,6.71
2022-11-21T05:29:52.191Z,6.76
2022-11-21T05:30:52.177Z,6.73
2022-11-21T05:31:52.977Z,6.71
2022-11-21T05:32:52.147Z,6.69
2022-11-21T05:33:52.147Z,6.66
2022-11-21T05:34:52.130Z,6.58
2022-11-21T05:35:52.118Z,6.56
2022-11-21T05:36:52.193Z,6.51
2022-11-21T05:37:52.099Z,6.46
2022-11-21T05:38:52.107Z,6.41
2022-11-21T05:39:52.089Z,6.37
2022-11-21T05:40:52.074Z,6.36
2022-11-21T05:41:52.083Z,6.31
2022-11-21T05:42:52.039Z,6.22
2022-11-21T05:43:52.032Z,6.25
2022-11-21T05:44:52.018Z,6.27
2022-11-21T05:45:52.010Z,6.22
2022-11-21T05:46:52.000Z,6.28
2022-11-21T05:47:51.996Z,6.33
2022-11-21T05:48:51.970Z,6.31
2022-11-21T05:49:51.971Z,6.33
2022-11-21T05:50:51.955Z,6.37
2022-11-21T05:51:51.956Z,6.37
2022-11-21T05:52:51.925Z,6.37
2022-11-21T05:53:51.939Z,6.37
2022-11-21T05:54:52.274Z,6.44
2022-11-21T05:55:51.912Z,6.49
2022-11-21T05:56:51.902Z,6.48
2022-11-21T05:57:52.852Z,6.52
2022-11-21T05:58:52.673Z,6.49
2022-11-21T05:59:51.872Z,6.46
2022-11-21T06:00:55.641Z,6.46
2022-11-21T06:01:52.854Z,6.44
2022-11-21T06:02:51.869Z,6.46
2022-11-21T06:03:51.824Z,6.51
2022-11-21T06:04:52.045Z,6.58
2022-11-21T06:05:51.805Z,6.62
2022-11-21T06:06:51.792Z,6.64
2022-11-21T06:07:51.795Z,6.61
2022-11-21T06:08:51.784Z,6.62
2022-11-21T06:09:51.755Z,6.62
2022-11-21T06:10:51.756Z,6.64
2022-11-21T06:11:51.926Z,6.64
2022-11-21T06:12:51.719Z,6.70
2022-11-21T06:13:51.734Z,6.71
2022-11-21T06:14:51.704Z,6.81
2022-11-21T06:15:51.699Z,6.87
2022-11-21T06:16:51.673Z,6.91
2022-11-21T06:17:52.477Z,6.97
2022-11-21T06:18:56.707Z,6.98
2022-11-21T06:19:52.648Z,6.94
2022-11-21T06:20:51.638Z,6.92
2022-11-21T06:21:51.628Z,6.92
2022-11-21T06:22:51.780Z,6.88
2022-11-21T06:23:51.607Z,6.88
2022-11-21T06:24:51.588Z,6.84
2022-11-21T06:25:51.610Z,6.81
2022-11-21T06:26:51.576Z,6.79
2022-11-21T06:27:51.575Z,6.73
2022-11-21T06:28:51.548Z,6.79
2022-11-21T06:29:51.548Z,6.79
2022-11-21T06:30:51.539Z,6.80
2022-11-21T06:31:51.530Z,6.76
2022-11-21T06:32:51.575Z,6.79
2022-11-21T06:33:51.508Z,6.76
2022-11-21T06:34:52.432Z,6.73
2022-11-21T06:35:51.471Z,6.76
2022-11-21T06:36:51.470Z,6.74
2022-11-21T06:37:53.663Z,6.76
2022-11-21T06:38:51.440Z,6.80
2022-11-21T06:39:51.434Z,6.79
2022-11-21T06:40:51.422Z,6.79
2022-11-21T06:41:51.459Z,6.77
2022-11-21T06:42:51.402Z,6.79
2022-11-21T06:43:51.398Z,6.74
2022-11-21T06:44:52.180Z,6.73
2022-11-21T06:45:51.383Z,6.70
2022-11-21T06:46:51.849Z,6.76
2022-11-21T06:47:51.353Z,6.76
2022-11-21T06:48:52.148Z,6.76
2022-11-21T06:49:52.113Z,6.77
2022-11-21T06:50:52.265Z,6.71
2022-11-21T06:51:52.287Z,6.70
2022-11-21T06:52:51.304Z,6.70
2022-11-21T06:53:53.262Z,6.69
2022-11-21T06:54:51.273Z,6.66
2022-11-21T06:55:51.264Z,6.69
2022-11-21T06:56:51.236Z,6.64
2022-11-21T06:57:52.035Z,6.66
2022-11-21T06:58:51.686Z,6.61
2022-11-21T06:59:51.227Z,6.64
2022-11-21T07:00:51.277Z,6.71
2022-11-21T07:01:51.998Z,6.77
2022-11-21T07:02:51.318Z,6.84
2022-11-21T07:03:51.178Z,6.80
2022-11-21T07:04:51.238Z,6.85
2022-11-21T07:05:51.168Z,6.77
2022-11-21T07:06:51.147Z,6.76
2022-11-21T07:07:51.487Z,6.71
2022-11-21T07:09:05.087Z,6.69
2022-11-21T07:09:52.128Z,6.62
2022-11-21T07:11:17.748Z,6.61
2022-11-21T07:11:53.548Z,6.58
2022-11-21T07:12:51.079Z,6.61
2022-11-21T07:13:51.104Z,6.62
2022-11-21T07:14:51.866Z,6.62
2022-11-21T07:15:51.051Z,6.69
2022-11-21T07:16:51.043Z,6.73
2022-11-21T07:17:51.040Z,6.79
2022-11-21T07:18:51.071Z,6.79
2022-11-21T07:19:51.011Z,6.76
2022-11-21T07:20:50.992Z,6.74
2022-11-21T07:21:52.462Z,6.76
2022-11-21T07:22:50.971Z,6.79
2022-11-21T07:23:50.960Z,6.79
2022-11-21T07:24:50.958Z,6.84
2022-11-21T07:25:50.959Z,6.87
2022-11-21T07:26:50.923Z,6.85
2022-11-21T07:27:50.922Z,6.91
2022-11-21T07:28:50.944Z,6.95
2022-11-21T07:29:52.370Z,7.02
2022-11-21T07:30:50.902Z,7.06
2022-11-21T07:31:50.873Z,7.15
2022-11-21T07:32:50.855Z,7.17
2022-11-21T07:33:50.863Z,7.16
2022-11-21T07:34:50.884Z,7.20
2022-11-21T07:35:50.849Z,7.20
2022-11-21T07:36:50.814Z,7.21
2022-11-21T07:37:50.805Z,7.23
2022-11-21T07:38:50.797Z,7.28
2022-11-21T07:39:50.800Z,7.28
2022-11-21T07:40:50.775Z,7.30
2022-11-21T07:41:50.787Z,7.32
2022-11-21T07:42:51.697Z,7.32
2022-11-21T07:43:51.557Z,7.31
2022-11-21T07:44:50.726Z,7.30
2022-11-21T07:45:50.748Z,7.35
2022-11-21T07:46:50.726Z,7.35
2022-11-21T07:47:50.720Z,7.34
2022-11-21T07:48:51.488Z,7.32
2022-11-21T07:49:50.688Z,7.34
2022-11-21T07:50:51.489Z,7.30
2022-11-21T07:51:50.669Z,7.32
2022-11-21T07:52:50.641Z,7.30
2022-11-21T07:53:50.650Z,7.30
2022-11-21T07:54:50.638Z,7.31
2022-11-21T07:55:51.439Z,7.34
2022-11-21T07:56:51.410Z,7.35
2022-11-21T07:57:50.789Z,7.37
2022-11-21T07:58:50.581Z,7.40
2022-11-21T07:59:50.588Z,7.39
2022-11-21T08:00:50.568Z,7.40
2022-11-21T08:01:51.406Z,7.39
2022-11-21T08:02:50.543Z,7.37
2022-11-21T08:03:50.541Z,7.40
2022-11-21T08:04:50.518Z,7.39
2022-11-21T08:05:50.571Z,7.45
2022-11-21T08:06:51.303Z,7.52
2022-11-21T08:07:50.492Z,7.58
2022-11-21T08:08:50.497Z,7.67
2022-11-21T08:09:50.479Z,7.71
2022-11-21T08:10:50.454Z,7.75
2022-11-21T08:11:50.453Z,7.82
2022-11-21T08:12:50.441Z,7.83
2022-11-21T08:13:50.426Z,7.80
2022-11-21T08:14:50.414Z,7.87
2022-11-21T08:15:50.418Z,7.90
2022-11-21T08:16:50.654Z,7.90
2022-11-21T08:17:50.404Z,7.95
2022-11-21T08:18:50.379Z,8.00
2022-11-21T08:19:51.167Z,8.02
2022-11-21T08:20:50.347Z,8.07
2022-11-21T08:21:50.363Z,8.16
2022-11-21T08:22:50.328Z,8.26
2022-11-21T08:23:50.326Z,8.26
2022-11-21T08:24:50.319Z,8.30
2022-11-21T08:25:50.302Z,8.40
2022-11-21T08:26:51.086Z,8.43
2022-11-21T08:27:50.295Z,8.48
2022-11-21T08:28:54.336Z,8.58
2022-11-21T08:29:51.258Z,8.63
2022-11-21T08:30:50.253Z,8.74
2022-11-21T08:31:50.247Z,8.79
2022-11-21T08:32:51.028Z,8.80
2022-11-21T08:33:50.229Z,8.89
2022-11-21T08:34:50.196Z,8.94
2022-11-21T08:35:50.223Z,9.05
2022-11-21T08:36:51.030Z,9.01
2022-11-21T08:37:50.180Z,9.13
2022-11-21T08:38:50.161Z,9.24
2022-11-21T08:39:50.250Z,9.26
2022-11-21T08:40:50.132Z,9.04
2022-11-21T08:41:50.163Z,9.18
2022-11-21T08:42:50.112Z,9.17
2022-11-21T08:43:50.121Z,9.11
2022-11-21T08:44:50.102Z,8.91
2022-11-21T08:45:50.104Z,8.80
2022-11-21T08:46:50.401Z,8.77
2022-11-21T08:47:50.088Z,8.71
2022-11-21T08:48:50.054Z,8.74
2022-11-21T08:49:50.054Z,8.80
2022-11-21T08:50:50.053Z,8.83
2022-11-21T08:51:50.043Z,9.10
2022-11-21T08:52:50.013Z,9.18
2022-11-21T08:53:50.004Z,9.60
2022-11-21T08:54:50.008Z,9.87
2022-11-21T08:55:49.994Z,10.32
2022-11-21T08:56:50.925Z,10.74
2022-11-21T08:57:49.980Z,10.94
2022-11-21T08:58:49.946Z,10.94
2022-11-21T08:59:50.740Z,10.96
2022-11-21T09:00:49.957Z,10.96
2022-11-21T09:01:49.968Z,10.79
2022-11-21T09:02:49.899Z,10.76
2022-11-21T09:03:49.897Z,10.51
2022-11-21T09:04:49.899Z,10.59
2022-11-21T09:05:49.878Z,10.63
2022-11-21T09:06:50.308Z,10.71
2022-11-21T09:07:49.927Z,10.81
2022-11-21T09:08:49.854Z,11.03
2022-11-21T09:09:50.638Z,11.21
2022-11-21T09:10:49.826Z,11.02
2022-11-21T09:11:49.809Z,10.86
2022-11-21T09:12:49.790Z,10.88
2022-11-21T09:13:49.830Z,10.55
2022-11-21T09:14:49.759Z,10.63
2022-11-21T09:15:50.040Z,10.42
2022-11-21T09:16:50.562Z,10.05
2022-11-21T09:17:49.743Z,9.76
2022-11-21T09:18:49.722Z,9.53
2022-11-21T09:19:49.733Z,9.47
2022-11-21T09:20:49.755Z,9.94
2022-11-21T09:21:49.712Z,10.20
2022-11-21T09:22:49.693Z,10.60
2022-11-21T09:23:49.682Z,10.64
2022-11-21T09:24:49.676Z,10.47
2022-11-21T09:25:49.663Z,10.51
2022-11-21T09:26:50.453Z,10.59
2022-11-21T09:27:49.637Z,10.73
2022-11-21T09:28:49.636Z,10.64
2022-11-21T09:29:54.098Z,10.81
2022-11-21T09:30:49.605Z,10.97
2022-11-21T09:31:49.747Z,11.03
2022-11-21T09:32:49.675Z,11.02
2022-11-21T09:33:54.648Z,10.96
2022-11-21T09:34:50.555Z,10.73
2022-11-21T09:35:49.548Z,10.41
2022-11-21T09:36:49.547Z,10.41
2022-11-21T09:37:49.516Z,10.30
2022-11-21T09:38:49.536Z,10.34
2022-11-21T09:39:49.498Z,10.51
2022-11-21T09:40:49.528Z,10.60
2022-11-21T09:41:49.493Z,10.68
2022-11-21T09:42:49.487Z,10.89
2022-11-21T09:43:55.556Z,11.04
2022-11-21T09:44:50.568Z,11.18
2022-11-21T09:45:49.450Z,11.18
2022-11-21T09:46:49.431Z,11.18
2022-11-21T09:47:49.410Z,11.24
2022-11-21T09:48:49.609Z,11.42
2022-11-21T09:49:49.401Z,11.44
2022-11-21T09:50:53.575Z,11.47
2022-11-21T09:51:49.374Z,11.51
2022-11-21T09:52:49.371Z,11.82
2022-11-21T09:53:49.604Z,11.80
2022-11-21T09:54:50.338Z,11.69
2022-11-21T09:55:49.322Z,11.27
2022-11-21T09:56:49.349Z,11.00
2022-11-21T09:57:49.313Z,10.91
2022-11-21T09:58:49.328Z,10.84
2022-11-21T09:59:49.325Z,10.91
2022-11-21T10:00:49.382Z,11.06
2022-11-21T10:01:49.264Z,11.04
2022-11-21T10:02:49.394Z,11.07
2022-11-21T10:03:50.068Z,11.04
2022-11-21T10:04:50.055Z,11.03
2022-11-21T10:05:50.139Z,11.04
2022-11-21T10:06:50.042Z,11.03
2022-11-21T10:07:49.379Z,11.15
2022-11-21T10:08:49.475Z,10.97
2022-11-21T10:09:49.194Z,10.85
2022-11-21T10:10:49.207Z,10.66
2022-11-21T10:11:49.296Z,10.67
2022-11-21T10:12:49.299Z,10.71
2022-11-21T10:13:49.938Z,10.76
2022-11-21T10:14:49.937Z,10.88
2022-11-21T10:15:49.130Z,11.17
2022-11-21T10:16:49.240Z,11.21
2022-11-21T10:17:49.902Z,11.32
2022-11-21T10:18:49.614Z,11.35
2022-11-21T10:19:49.070Z,11.15
2022-11-21T10:20:49.069Z,10.94
2022-11-21T10:21:49.089Z,10.96
2022-11-21T10:22:49.120Z,11.11
2022-11-21T10:23:49.026Z,11.22
2022-11-21T10:24:49.022Z,11.43
2022-11-21T10:25:49.002Z,11.55
2022-11-21T10:26:49.002Z,11.72
2022-11-21T10:27:49.221Z,11.85
2022-11-21T10:28:48.979Z,11.96
2022-11-21T10:29:49.282Z,12.09
2022-11-21T10:30:48.965Z,12.16
2022-11-21T10:31:48.942Z,12.23
2022-11-21T10:32:49.241Z,12.17
2022-11-21T10:33:48.916Z,12.39
2022-11-21T10:34:48.914Z,12.41
2022-11-21T10:35:48.895Z,12.39
2022-11-21T10:36:48.905Z,12.49
2022-11-21T10:37:48.928Z,12.70
2022-11-21T10:38:48.878Z,13.04
2022-11-21T10:39:48.876Z,13.39
2022-11-21T10:40:48.853Z,13.15
2022-11-21T10:41:48.827Z,12.41
2022-11-21T10:42:48.860Z,12.28
2022-11-21T10:43:48.816Z,12.45
2022-11-21T10:44:48.816Z,12.52
2022-11-21T10:45:48.797Z,12.71
2022-11-21T10:46:48.785Z,13.10
2022-11-21T10:47:48.777Z,13.03
2022-11-21T10:48:48.759Z,12.87
2022-11-21T10:49:48.747Z,12.59
2022-11-21T10:50:48.827Z,12.42
2022-11-21T10:51:48.728Z,12.31
2022-11-21T10:52:48.739Z,12.12
2022-11-21T10:53:48.701Z,11.82
2022-11-21T10:54:49.160Z,11.69
2022-11-21T10:55:48.689Z,11.98
2022-11-21T10:56:48.671Z,12.17
2022-11-21T10:57:48.658Z,12.39
2022-11-21T10:58:48.703Z,12.87
2022-11-21T10:59:48.642Z,13.23
2022-11-21T11:00:48.659Z,13.49
2022-11-21T11:01:48.612Z,13.14
2022-11-21T11:02:48.623Z,12.97
2022-11-21T11:04:06.984Z,12.77
2022-11-21T11:04:52.513Z,12.90
2022-11-21T11:05:49.523Z,12.89
2022-11-21T11:06:48.563Z,12.95
2022-11-21T11:07:48.583Z,13.26
2022-11-21T11:08:48.543Z,13.60
2022-11-21T11:09:48.543Z,13.57
2022-11-21T11:10:48.537Z,13.52
2022-11-21T11:11:48.511Z,13.70
2022-11-21T11:12:48.507Z,13.49
2022-11-21T11:13:49.889Z,13.15
2022-11-21T11:14:48.627Z,12.23
2022-11-21T11:15:48.498Z,12.46
2022-11-21T11:16:48.465Z,12.77
2022-11-21T11:17:48.439Z,12.87
2022-11-21T11:18:48.976Z,13.05
2022-11-21T11:19:48.590Z,12.77
2022-11-21T11:20:48.429Z,13.01
2022-11-21T11:21:49.590Z,13.07
2022-11-21T11:22:48.434Z,12.90
2022-11-21T11:23:48.369Z,12.87
2022-11-21T11:24:48.378Z,12.59
2022-11-21T11:25:49.170Z,12.68
2022-11-21T11:26:49.467Z,12.72
2022-11-21T11:27:49.463Z,12.90
2022-11-21T11:28:48.412Z,13.10
2022-11-21T11:29:48.329Z,12.97
2022-11-21T11:30:48.301Z,13.25
2022-11-21T11:31:48.293Z,13.49
2022-11-21T11:32:48.292Z,13.12
2022-11-21T11:33:48.273Z,13.05
2022-11-21T11:34:48.265Z,13.22
2022-11-21T11:35:48.249Z,13.48
2022-11-21T11:36:48.292Z,13.22
2022-11-21T11:37:48.230Z,13.42
2022-11-21T11:38:48.235Z,13.64
2022-11-21T11:39:48.211Z,13.75
2022-11-21T11:40:48.196Z,13.95
2022-11-21T11:41:48.183Z,14.22
2022-11-21T11:42:48.177Z,14.43
2022-11-21T11:43:48.157Z,14.55
2022-11-21T11:44:48.167Z,14.46
2022-11-21T11:45:48.138Z,14.43
2022-11-21T11:46:48.146Z,14.33
2022-11-21T11:47:54.236Z,14.37
2022-11-21T11:49:17.135Z,14.54
2022-11-21T11:49:49.100Z,14.65
2022-11-21T11:50:48.100Z,14.33
2022-11-21T11:51:48.086Z,13.78
2022-11-21T11:52:48.069Z,13.89
2022-11-21T11:53:48.042Z,14.06
2022-11-21T11:54:48.049Z,13.99
2022-11-21T11:55:48.041Z,13.82
2022-11-21T11:56:48.033Z,13.48
2022-11-21T11:57:48.015Z,13.42
2022-11-21T11:58:49.587Z,13.33
2022-11-21T11:59:47.986Z,13.60
2022-11-21T12:00:47.994Z,13.64
2022-11-21T12:01:48.586Z,13.49
2022-11-21T12:02:47.965Z,13.66
2022-11-21T12:03:50.920Z,13.78
2022-11-21T12:04:48.968Z,13.71
2022-11-21T12:05:49.887Z,13.17
2022-11-21T12:08:49.053Z,12.74
2022-11-21T12:09:49.031Z,12.60
2022-11-21T12:10:48.688Z,12.41
2022-11-21T12:11:47.871Z,12.53
2022-11-21T12:12:47.858Z,12.46
2022-11-21T12:13:47.958Z,12.34
2022-11-21T12:14:48.111Z,12.49
2022-11-21T12:15:48.622Z,12.74
2022-11-21T12:16:47.820Z,12.83
2022-11-21T12:17:47.791Z,12.77
2022-11-21T12:18:48.112Z,12.85
2022-11-21T12:19:47.774Z,12.64
2022-11-21T12:20:47.781Z,12.60
2022-11-21T12:21:47.754Z,12.41
2022-11-21T12:22:48.533Z,12.38
2022-11-21T12:23:47.733Z,12.38
2022-11-21T12:24:48.096Z,12.34
2022-11-21T12:25:48.115Z,12.31
2022-11-21T12:26:47.754Z,12.42
2022-11-21T12:27:47.690Z,12.49
2022-11-21T12:28:47.686Z,12.47
2022-11-21T12:29:47.666Z,12.45
2022-11-21T12:30:47.664Z,12.34
2022-11-21T12:31:47.658Z,11.94
2022-11-21T12:32:47.647Z,12.07
2022-11-21T12:33:47.648Z,12.39
2022-11-21T12:34:47.619Z,12.29
2022-11-21T12:35:48.559Z,12.46
2022-11-21T12:36:48.146Z,12.75
2022-11-21T12:37:47.570Z,12.95
2022-11-21T12:38:48.109Z,13.23
2022-11-21T12:39:48.135Z,13.33
2022-11-21T12:40:47.550Z,13.32
2022-11-21T12:41:47.530Z,13.62
2022-11-21T12:42:47.532Z,13.70
2022-11-21T12:43:50.761Z,13.75
2022-11-21T12:44:48.517Z,13.81
2022-11-21T12:45:47.492Z,13.70
2022-11-21T12:46:47.486Z,13.42
2022-11-21T12:47:47.481Z,13.07
2022-11-21T12:48:48.282Z,12.89
2022-11-21T12:49:54.268Z,12.70
2022-11-21T12:50:48.455Z,12.46
2022-11-21T12:51:47.425Z,12.20
2022-11-21T12:52:48.244Z,11.91
2022-11-21T12:53:48.205Z,11.72
2022-11-21T12:54:47.417Z,11.60
2022-11-21T12:55:48.023Z,11.47
2022-11-21T12:56:47.379Z,11.62
2022-11-21T12:57:47.980Z,11.51
2022-11-21T12:58:47.628Z,11.52
2022-11-21T12:59:47.356Z,11.70
2022-11-21T13:00:47.346Z,11.80
2022-11-21T13:01:47.352Z,11.82
2022-11-21T13:02:47.338Z,11.91
2022-11-21T13:03:48.153Z,12.14
2022-11-21T13:04:47.300Z,12.52
2022-11-21T13:05:48.068Z,12.82
2022-11-21T13:06:47.280Z,13.20
2022-11-21T13:07:47.315Z,13.20
2022-11-21T13:08:47.252Z,13.49
2022-11-21T13:09:47.258Z,13.25
2022-11-21T13:10:47.243Z,12.70
2022-11-21T13:11:47.379Z,12.35
2022-11-21T13:12:47.213Z,12.54